Tiempo atmosférico en la estación meteorológica de Carrión De Los Condes, Palencia (830 m.)



Fecha
DESCASC
Temp. máxima en grados centígrados (hora)
DESCASC
Temp. mínima en grados centígrados (hora)
DESCASC
Temp. media en grados centígrados
DESCASC
Racha de viento máxima en m/sg (hora)
DESCASC
Velocidad máxima media en intervalos de 10 minutos(hora)
DESCASC
Precipitaciones diarias en mm
DESCASC
Precipitaciones de 00:00 a 06:00 en mm
DESCASC
Precipitaciones de 06:00 a 12:00 en mm
DESCASC
Precipitaciones de 12:00 a 18:00 en mm
DESCASC
Precipitaciones de 18:00 a 24:00 en mm
DESCASC
17-09-2020 25.7 (18:00) 15.6 (08:20) 20.7 8.89 (23:40) 3.61 (23:40) 0.4 0.4 0 0 0
15-09-2020 26 (15:30) 13.1 (08:10) 19.6 10.56 (00:40) 3.89 (00:40) 6 6 0 0 0
14-09-2020 28.6 (17:20) 12.1 (07:10) 20.4 15 (20:30) 5.56 (20:30) 10.2 0 0 0 10.2
13-09-2020 32.8 (16:30) 11.8 (00:00) 22.3 5.83 (04:20) 2.78 (06:00) 0 0 0 0 0
12-09-2020 29.8 (17:20) 12.3 (08:10) 21 6.39 (14:50) 2.78 (00:50) 0 0 0 0 0
11-09-2020 29.4 (17:40) 11.7 (00:00) 20.5 6.39 (23:59) 2.78 (00:20) 0 0 0 0 0
10-09-2020 28.8 (17:20) 9.6 (00:00) 19.2 7.5 (20:10) 3.33 (20:20) 0 0 0 0 0
09-09-2020 27.8 (17:30) 8.5 (08:20) 18.1 7.22 (20:50) 3.33 (20:50) 0 0 0 0 0
08-09-2020 24.9 (17:20) 9.3 (00:00) 17.1 11.67 (10:50) 4.72 (05:40) 0 0 0 0 0
07-09-2020 19.5 (16:00) 9.1 (06:10) 14.3 14.17 (10:40) 6.67 (10:40) 0 0 0 0 0
06-09-2020 21.7 (16:40) 11.7 (00:00) 16.7 11.94 (19:50) 5.28 (20:00) 0 0 0 0 0
05-09-2020 26.4 (16:20) 14.7 (00:00) 20.5 11.39 (21:20) 5 (21:00) 0 0 0 0 0
04-09-2020 32.4 (16:20) 9.5 (00:00) 21 6.11 (23:10) 3.06 (22:50) 0 0 0 0 0
03-09-2020 29.5 (16:20) 7.9 (00:00) 18.7 4.17 (16:40) 2.5 (17:20) 0 0 0 0 0
02-09-2020 25.8 (17:50) 9.9 (00:00) 17.8 8.61 (09:30) 3.61 (11:10) 0 0 0 0 0
01-09-2020 25.6 (18:00) 8.5 (00:00) 17.1 11.39 (22:00) 4.72 (22:00) 0 0 0 0 0
31-08-2020 22.5 (16:00) 5.1 (00:00) 13.8 5.83 (00:10) 2.78 (01:00) 0 0 0 0 0
30-08-2020 20.1 (17:00) 3.7 (00:00) 11.9 9.72 (19:10) 3.89 (19:10) 0 0 0 0 0
29-08-2020 19.5 (17:00) 5.7 (00:00) 12.6 12.78 (18:30) 6.39 (18:30) 0 0 0 0 0
28-08-2020 26.7 (16:10) 12.3 (00:00) 19.5 10 (19:00) 4.72 (19:00) 0 0 0 0 0
27-08-2020 32 (16:20) 13.1 (00:00) 22.6 6.94 (15:30) 3.06 (22:00) 0 0 0 0 0
26-08-2020 31.9 (16:50) 12.1 (00:00) 22 7.78 (10:20) 3.33 (10:20) 0 0 0 0 0
25-08-2020 32.4 (17:40) 9.4 (00:00) 20.9 9.72 (14:10) 3.33 (22:00) 0 0 0 0 0
24-08-2020 27.8 (18:20) 10.1 (06:30) 18.9 6.11 (00:10) 2.5 (00:10) 0 0 0 0 0
23-08-2020 27.3 (18:00) 11.7 (00:00) 19.5 8.61 (23:00) 3.61 (23:20) 0 0 0 0 0
22-08-2020 26.3 (18:20) 9.9 (00:00) 18.1 7.78 (22:40) 3.33 (21:50) 0.2 0 0.2 0 0
21-08-2020 24.8 (17:30) 13.2 (23:59) 19 8.61 (01:00) 3.61 (01:00) 2.6 2.6 0 0 0
20-08-2020 30.1 (18:10) 12.7 (00:00) 21.4 14.44 (17:10) 5.56 (17:20) 2.4 0 0 0 2.4
19-08-2020 30.1 (17:10) 11.4 (00:00) 20.8 11.67 (17:20) 4.17 (14:50) 0 0 0 0 0

Gráficas

Temp. máximas Temp. mínimas Temp. medias Precipitaciones Rachas de viento máximas Velocidades máximas media en intervalos de 10 minutos

Datos horarios

Fecha y hora oficial Temperatura (ºC) Velocidad del viento (km/h) Dirección del viento Racha (km/h) Dirección de racha Precipitación (mm) Presión (hPa) Tendencia (hPa) Humedad (%)
2020-09-17 23:00:00 19.1 3 Este 14 Sur 0 919.1 0.7 66
2020-09-17 22:00:00 20.6 7 Sudeste 19 Sur 0 918.9 0.5 59
2020-09-17 21:00:00 20.9 5 Sudeste 14 Sudoeste 0 918.8 -- 57
2020-09-17 20:00:00 22.9 5 Sur 21 Sur 0 918.4 -- 49
2020-09-17 19:00:00 24.9 8 Sudeste 26 Sur 0 918.4 -- 43
2020-09-17 18:00:00 25.7 8 Sudeste 24 Sur 0 918.9 -- 44
2020-09-17 17:00:00 24.3 5 Sur 19 Sur 0 919.5 -- 46
2020-09-17 16:00:00 23.2 4 Sur 24 Sur 0 920.2 -- 55
2020-09-17 15:00:00 23.3 7 Sudeste 22 Sur 0 920.6 -- 53
2020-09-17 14:00:00 22.9 9 Sur 26 Sudoeste 0 921.1 -- 55
2020-09-17 13:00:00 22.5 8 Sudeste 23 Sudeste 0 921.6 -- 61
2020-09-17 12:00:00 20.1 9 Sudeste 17 Este 0 922.3 -- 72
2020-09-17 11:00:00 20.1 7 Sudeste 14 Sudeste 0 922.2 -- 71
2020-09-17 10:00:00 18.2 2 Nordeste 9 Norte 0 922.1 -- 82
2020-09-17 09:00:00 16 3 Norte 8 Norte 0 922.2 -- 94
2020-09-17 08:00:00 15.7 2 Noroeste 4 Sudoeste 0 922.3 -- 89
2020-09-17 07:00:00 16 2 Noroeste 10 Este 0 922.3 -- 87
2020-09-17 06:00:00 16.4 6 Este 16 Sudeste 0 922.8 -- 84
2020-09-17 05:00:00 16.3 2 Norte 27 Noroeste 0.2 922.4 -- 83
2020-09-17 04:00:00 18.3 9 Este 22 Noroeste 0.2 923 -- 70
2020-09-17 03:00:00 19.4 5 Este 18 Nordeste 0 923.8 -- 71
2020-09-17 02:00:00 20.2 8 Nordeste 26 Este 0 923.7 -- 67
2020-09-17 01:00:00 20.3 10 Nordeste 24 Nordeste 0 923.6 -- 68
2020-09-17 00:00:00 20.6 10 Nordeste 26 Nordeste 0 923.8 -- 68
2020-09-16 23:00:00 21 9 Nordeste 22 Nordeste 0 923.8 -- 64
2020-09-16 22:00:00 21.3 9 Nordeste 21 Norte 0 923.8 -- 54
2020-09-16 21:00:00 22.1 9 Norte 19 Nordeste 0 923.5 -- 49
2020-09-16 20:00:00 21.7 0 Calma 9 Noroeste 0 923.4 -- 68
2020-09-16 19:00:00 24.4 4 Noroeste 12 Norte 0 923.4 -- 53
2020-09-16 18:00:00 26.5 4 Norte 18 Norte 0 923.6 -- 38
2020-09-16 17:00:00 27.8 3 Noroeste 16 Este 0 924.1 -- 34
2020-09-16 16:00:00 27.4 4 Este 14 Sudoeste 0 924.9 -- 30
2020-09-16 15:00:00 26.7 2 Noroeste 14 Este 0 925.6 -- 36
2020-09-16 14:00:00 26.2 5 Sudeste 15 Nordeste 0 926.3 -- 38
2020-09-16 13:00:00 24.5 3 Norte 14 Sudeste 0 927 -- 42
2020-09-16 12:00:00 22.4 5 Este 13 Este 0 927.2 -- 54
2020-09-16 11:00:00 19.7 4 Este 12 Este 0 927.4 -- 65
2020-09-16 10:00:00 16.4 5 Nordeste 12 Este 0 927.3 -- 82
2020-09-16 09:00:00 11.9 0 Calma 4 Oeste 0 927.4 -- --
2020-09-16 08:00:00 10.5 0 Calma 3 Oeste 0 926.9 -- --
2020-09-16 07:00:00 11 0 Calma 3 Noroeste 0 926.8 -- 100
2020-09-16 06:00:00 11.9 2 Norte 5 Oeste 0 926.9 -- 100
2020-09-16 05:00:00 12.6 0 Calma 8 Nordeste 0 927 -- 100
2020-09-16 04:00:00 12.7 0 Calma 4 Nordeste 0 927.3 -- 99
2020-09-16 03:00:00 13.5 0 Calma 4 Oeste 0 927.4 -- 99
2020-09-16 02:00:00 13.7 0 Calma 4 Oeste 0 927.5 -- 97
2020-09-16 01:00:00 14.2 0 Calma 5 Nordeste 0 927.4 -- 90
2020-09-16 00:00:00 15 2 Nordeste 5 Nordeste 0 927.2 -- 88
2020-09-15 23:00:00 15.5 2 Nordeste 4 Nordeste 0 927 -- 86
2020-09-15 22:00:00 16.8 2 Norte 3 Norte 0 926.8 -- 82
2020-09-15 21:00:00 18.6 2 Norte 3 Norte 0 926.3 -- 77
2020-09-15 20:00:00 21.1 0 Calma 5 Sudeste 0 926.3 -- 72
2020-09-15 19:00:00 23.7 3 Sudeste 13 Sudoeste 0 926.3 -- 52
2020-09-15 18:00:00 24.9 4 Sudeste 17 Sudoeste 0 926.4 -- 49
2020-09-15 17:00:00 25.3 6 Sudeste 19 Sur 0 926.7 -- 47
2020-09-15 16:00:00 24.7 6 Sudoeste 20 Sudeste 0 927 -- 47
2020-09-15 15:00:00 25.1 5 Sudoeste 24 Sudoeste 0 927.4 -- 47
2020-09-15 14:00:00 24.5 4 Sudoeste 16 Sudoeste 0 927.8 -- 55
2020-09-15 13:00:00 23.6 5 Sur 13 Sudoeste 0 928.1 -- 56
2020-09-15 12:00:00 22 3 Sudeste 13 Sudeste 0 928.4 -- 64
2020-09-15 11:00:00 20 5 Sudeste 16 Sudeste 0 928.5 -- 70
2020-09-15 10:00:00 17.7 5 Sudeste 10 Este 0 928.1 -- 83
2020-09-15 09:00:00 14.3 4 Nordeste 9 Este 0 928.1 -- 100
2020-09-15 08:00:00 13.2 3 Nordeste 9 Nordeste 0 927.8 -- 99
2020-09-15 07:00:00 13.7 3 Nordeste 9 Nordeste 0 927.6 -- 99
2020-09-15 06:00:00 14.1 2 Este 9 Nordeste 0 927.5 -- 96
2020-09-15 05:00:00 15.4 5 Nordeste 16 Nordeste 0 927.2 -- 94
2020-09-15 04:00:00 15.8 6 Este 14 Nordeste 0 927.4 -- 91
2020-09-15 03:00:00 15.8 3 Nordeste 14 Nordeste 0.2 927.5 -- 91
2020-09-15 02:00:00 16.1 5 Nordeste 23 Sudeste 1.2 927.3 -- 85
2020-09-15 01:00:00 16.2 6 Sudeste 38 Sudoeste 4.6 928.1 -- 89
2020-09-15 00:00:00 17 7 Nordeste 19 Nordeste 0.2 926.7 -- 81
2020-09-14 23:00:00 16.9 7 Nordeste 21 Nordeste 2.4 926.7 -- 82
2020-09-14 22:00:00 17.3 8 Nordeste 23 Sudoeste 4.4 926.2 -- 80
2020-09-14 21:00:00 17.7 6 Oeste 54 Sudoeste 3.2 927.7 -- 83
2020-09-14 20:00:00 22.4 0 Calma 7 Sur 0 925.1 -- 59
2020-09-14 19:00:00 26.3 4 Sudeste 17 Sur 0 925.1 -- 35
2020-09-14 18:00:00 28.1 6 Sur 20 Sudoeste 0 925.6 -- 31
2020-09-14 17:00:00 28.3 6 Sur 22 Sur 0 926.1 -- 32
2020-09-14 16:00:00 27.4 7 Sur 16 Sur 0 926.9 -- 35
2020-09-14 15:00:00 24.8 5 Sudoeste 13 Sudoeste 0 927.5 -- 39
2020-09-14 14:00:00 23.5 0 Calma 18 Sudoeste 0 928 -- 54
2020-09-14 13:00:00 25 4 Sudeste 15 Sur 0 928.1 -- 41
2020-09-14 12:00:00 25.3 8 Sur 23 Sur 0 928.3 -- 39
2020-09-14 11:00:00 23.9 6 Sudeste 17 Sudeste 0 928.4 -- 41
2020-09-14 10:00:00 20.5 8 Este 14 Este 0 928.3 -- 47
2020-09-14 09:00:00 15.5 5 Nordeste 12 Nordeste 0 928.2 -- 61
2020-09-14 08:00:00 13.1 3 Nordeste 13 Nordeste 0 927.9 -- 69
2020-09-14 07:00:00 12.2 3 Nordeste 9 Nordeste 0 927.6 -- 72
2020-09-14 06:00:00 13.2 3 Nordeste 10 Nordeste 0 927.5 -- 70
2020-09-14 05:00:00 13 3 Nordeste 7 Nordeste 0 927.6 -- 73
2020-09-14 04:00:00 13.9 0 Calma 11 Nordeste 0 927.7 -- 68
2020-09-14 03:00:00 14.9 4 Este 12 Este 0 928 -- 61
2020-09-14 02:00:00 14.3 2 Nordeste 9 Nordeste 0 927.7 -- 69
2020-09-14 01:00:00 14.8 2 Nordeste 6 Nordeste 0 927.7 -- 69
2020-09-14 00:00:00 16.2 3 Norte 17 Sudoeste 0 927.8 -- 65
2020-09-13 23:00:00 16 3 Este 7 Nordeste 0 927.5 -- 67
2020-09-13 22:00:00 17.7 2 Norte 4 Nordeste 0 927.3 -- 68
2020-09-13 21:00:00 20.4 0 Calma 4 Norte 0 926.8 -- 61
2020-09-13 20:00:00 24.8 2 Norte 16 Sudoeste 0 926.7 -- 48
2020-09-13 19:00:00 29.3 8 Sudoeste 18 Sudoeste 0 926.5 -- 24
2020-09-13 18:00:00 31.6 5 Oeste 19 Sudoeste 0 926.6 -- 21
2020-09-13 17:00:00 32.4 6 Sudoeste 18 Sudoeste 0 926.7 -- 20
2020-09-13 16:00:00 32.6 4 Sudoeste 16 Sudoeste 0 927.1 -- 20
2020-09-13 15:00:00 30.1 4 Nordeste 19 Sudeste 0 927.6 -- 26
2020-09-13 14:00:00 29.7 7 Sudoeste 18 Sudoeste 0 928.2 -- 26
2020-09-13 13:00:00 28 4 Sudeste 13 Este 0 928.5 -- 29
2020-09-13 12:00:00 25.5 5 Este 14 Sudeste 0 929 -- 33
2020-09-13 11:00:00 22.9 7 Este 16 Este 0 929 -- 37
2020-09-13 10:00:00 19.7 4 Este 10 Nordeste 0 928.8 -- 40
2020-09-13 09:00:00 13 0 Calma 4 Sudeste 0 928.6 -- 66
2020-09-13 08:00:00 12.8 0 Calma 15 Nordeste 0 928.2 -- 58
2020-09-13 07:00:00 15 8 Nordeste 20 Nordeste 0 927.8 -- 45
2020-09-13 06:00:00 15.8 10 Norte 21 Nordeste 0 927.8 -- 44
2020-09-13 05:00:00 14.1 4 Nordeste 21 Este 0 927.9 -- 53
2020-09-13 04:00:00 15.2 8 Nordeste 17 Norte 0 928 -- 54
2020-09-13 03:00:00 16.7 8 Nordeste 19 Nordeste 0 928.3 -- 51
2020-09-13 02:00:00 16.6 8 Nordeste 16 Nordeste 0 928.5 -- 52
2020-09-13 01:00:00 17.3 9 Nordeste 18 Nordeste 0 928.5 -- 53
2020-09-13 00:00:00 18.4 8 Nordeste 18 Nordeste 0 928.3 -- 46
2020-09-12 23:00:00 19 10 Nordeste 19 Nordeste 0 928 -- 40
2020-09-12 22:00:00 20.1 6 Nordeste 18 Este 0 927.6 -- 33
2020-09-12 21:00:00 18.1 3 Nordeste 10 Este 0 926.8 -- 49
2020-09-12 20:00:00 22.8 0 Calma 12 Este 0 926.3 -- 36
2020-09-12 19:00:00 27.4 4 Nordeste 17 Este 0 926 -- 15
2020-09-12 18:00:00 29.2 5 Este 14 Nordeste 0 926 -- 14
2020-09-12 17:00:00 29.5 4 Nordeste 18 Este 0 925.8 -- 14
2020-09-12 16:00:00 29.4 5 Este 18 Este 0 926.3 -- 17
2020-09-12 15:00:00 28.7 4 Noroeste 23 Nordeste 0 926.5 -- 18
2020-09-12 14:00:00 28.4 6 Sudeste 21 Nordeste 0 926.9 -- 22
2020-09-12 13:00:00 26.5 6 Este 19 Sudeste 0 927.1 -- 23
2020-09-12 12:00:00 24 6 Este 19 Nordeste 0 927.2 -- 39
2020-09-12 11:00:00 20.9 9 Nordeste 22 Nordeste 0 926.9 -- 54
2020-09-12 10:00:00 17.9 7 Nordeste 17 Nordeste 0 926.6 -- 64
2020-09-12 09:00:00 14.2 3 Nordeste 14 Nordeste 0 926.4 -- 76
2020-09-12 08:00:00 12.4 5 Nordeste 14 Nordeste 0 925.8 -- 80
2020-09-12 07:00:00 13.1 7 Nordeste 16 Nordeste 0 925.3 -- 82
2020-09-12 06:00:00 12.6 7 Nordeste 13 Nordeste 0 924.9 -- 87
2020-09-12 05:00:00 13.3 3 Nordeste 19 Nordeste 0 924.9 -- 84
2020-09-12 04:00:00 15 7 Norte 16 Norte 0 924.8 -- 83
2020-09-12 03:00:00 15.5 6 Nordeste 17 Nordeste 0 924.9 -- 81
2020-09-12 02:00:00 16.4 8 Nordeste 21 Nordeste 0 924.8 -- 78
2020-09-12 01:00:00 16.9 9 Nordeste 22 Nordeste 0 924.6 -- 76
2020-09-12 00:00:00 17.8 9 Nordeste 23 Nordeste 0 924.4 -- 70
2020-09-11 23:00:00 16.4 5 Nordeste 14 Nordeste 0 924.2 -- 58
2020-09-11 22:00:00 16.8 5 Nordeste 13 Nordeste 0 923.6 -- 45
2020-09-11 21:00:00 17.9 0 Calma 7 Nordeste 0 922.8 -- 56
2020-09-11 20:00:00 22.3 0 Calma 8 Nordeste 0 922.4 -- 48
2020-09-11 19:00:00 27 6 Nordeste 17 Nordeste 0 922.2 -- 22
2020-09-11 18:00:00 29.2 4 Sudoeste 15 Noroeste 0 922.4 -- 23
2020-09-11 17:00:00 29 4 Oeste 14 Noroeste 0 922.7 -- 26
2020-09-11 16:00:00 28.4 4 Noroeste 13 Noroeste 0 923 -- 28
2020-09-11 15:00:00 27.2 3 Nordeste 14 Noroeste 0 923.6 -- 30
2020-09-11 14:00:00 25.9 5 Norte 18 Este 0 924 -- 34
2020-09-11 13:00:00 24.7 5 Este 19 Norte 0 924.4 -- 42
2020-09-11 12:00:00 22.5 4 Este 17 Este 0 924.8 -- 50
2020-09-11 11:00:00 20.5 7 Este 21 Nordeste 0 924.9 -- 56
2020-09-11 10:00:00 17.9 8 Nordeste 19 Este 0 924.8 -- 65
2020-09-11 09:00:00 14.6 5 Norte 14 Norte 0 924.8 -- 76
2020-09-11 08:00:00 11.8 3 Noroeste 12 Nordeste 0 924.4 -- 83
2020-09-11 07:00:00 13.2 6 Norte 15 Nordeste 0 924.2 -- 77
2020-09-11 06:00:00 12.6 5 Norte 17 Nordeste 0 924.5 -- 78
2020-09-11 05:00:00 12.8 6 Nordeste 13 Nordeste 0 924.8 -- 76
2020-09-11 04:00:00 13.3 6 Nordeste 13 Nordeste 0 925 -- 76
2020-09-11 03:00:00 14.2 5 Nordeste 19 Nordeste 0 925.3 -- 70
2020-09-11 02:00:00 15 6 Nordeste 19 Nordeste 0 925.6 -- 68
2020-09-11 01:00:00 16.1 9 Nordeste 21 Nordeste 0 925.7 -- 68
2020-09-11 00:00:00 17.2 6 Nordeste 21 Nordeste 0 925.8 -- 68
2020-09-10 23:00:00 18.5 7 Nordeste 19 Nordeste 0 925.7 -- 63
2020-09-10 22:00:00 19.8 7 Nordeste 16 Nordeste 0 925.4 -- 52
2020-09-10 21:00:00 21.7 5 Nordeste 27 Nordeste 0 924.8 -- 46
2020-09-10 20:00:00 22 4 Norte 10 Nordeste 0 924.6 -- 52
2020-09-10 19:00:00 25.9 4 Noroeste 14 Norte 0 924.6 -- 30
2020-09-10 18:00:00 27.5 5 Noroeste 13 Noroeste 0 925 -- 25
2020-09-10 17:00:00 28.4 5 Sudoeste 14 Noroeste 0 925.4 -- 26
2020-09-10 16:00:00 27.3 6 Nordeste 16 Noroeste 0 926.1 -- 26
2020-09-10 15:00:00 26.6 6 Noroeste 15 Sudeste 0 926.8 -- 28
2020-09-10 14:00:00 25.5 6 Norte 18 Este 0 927.3 -- 31
2020-09-10 13:00:00 24.8 5 Este 20 Sudeste 0 928 -- 35
2020-09-10 12:00:00 22.9 8 Nordeste 21 Nordeste 0 928.6 -- 40
2020-09-10 11:00:00 21 8 Este 24 Norte 0 928.8 -- 45
2020-09-10 10:00:00 18 8 Nordeste 19 Nordeste 0 928.6 -- 54
2020-09-10 09:00:00 13.2 5 Norte 9 Norte 0 928.4 -- 73
2020-09-10 08:00:00 9.7 3 Norte 7 Nordeste 0 928 -- 86
2020-09-10 07:00:00 10.7 0 Calma 10 Norte 0 927.9 -- 81
2020-09-10 06:00:00 12.1 4 Norte 11 Norte 0 928 -- 79
2020-09-10 05:00:00 12.5 2 Nordeste 9 Nordeste 0 928.3 -- 73
2020-09-10 04:00:00 13.8 3 Norte 13 Nordeste 0 928.7 -- 71
2020-09-10 03:00:00 15.3 5 Nordeste 23 Nordeste 0 929 -- 67
2020-09-10 02:00:00 15.9 8 Nordeste 20 Nordeste 0 928.9 -- 66
2020-09-10 01:00:00 16.4 9 Nordeste 24 Nordeste 0 929.1 -- 65
2020-09-10 00:00:00 16.5 9 Nordeste 24 Norte 0 928.9 -- 66
2020-09-09 23:00:00 17.6 7 Nordeste 22 Nordeste 0 928.9 -- 58
2020-09-09 22:00:00 19.4 10 Nordeste 22 Nordeste 0 928.7 -- 52
2020-09-09 21:00:00 21.7 10 Nordeste 26 Nordeste 0 927.7 -- 46
2020-09-09 20:00:00 24.4 10 Nordeste 24 Nordeste 0 927 -- 30
2020-09-09 19:00:00 25.6 4 Noroeste 19 Nordeste 0 926.9 -- 29
2020-09-09 18:00:00 26.8 7 Norte 17 Nordeste 0 926.9 -- 22
2020-09-09 17:00:00 27.2 4 Noroeste 24 Nordeste 0 927.2 -- 23
2020-09-09 16:00:00 26.6 4 Norte 18 Noroeste 0 927.6 -- 24
2020-09-09 15:00:00 25.8 4 Norte 13 Nordeste 0 928.2 -- 25
2020-09-09 14:00:00 24.6 6 Noroeste 16 Este 0 928.5 -- 32
2020-09-09 13:00:00 24.2 4 Sudeste 13 Este 0 929 -- 29
2020-09-09 12:00:00 22.5 5 Sudeste 16 Sudeste 0 929.4 -- 34
2020-09-09 11:00:00 20.8 7 Sudeste 15 Sudeste 0 929.6 -- 37
2020-09-09 10:00:00 18.1 5 Este 17 Nordeste 0 929.3 -- 46
2020-09-09 09:00:00 11.8 3 Nordeste 10 Nordeste 0 929.3 -- 68
2020-09-09 08:00:00 8.8 0 Calma 9 Nordeste 0 929 -- 79
2020-09-09 07:00:00 10.4 3 Nordeste 12 Nordeste 0 928.4 -- 72
2020-09-09 06:00:00 11.7 4 Norte 17 Nordeste 0 928.5 -- 68
2020-09-09 05:00:00 12.3 7 Nordeste 19 Nordeste 0 928.4 -- 67
2020-09-09 04:00:00 12.2 7 Nordeste 18 Este 0 928.5 -- 69
2020-09-09 03:00:00 12.7 6 Nordeste 18 Nordeste 0 928.7 -- 68
2020-09-09 02:00:00 13.9 7 Nordeste 17 Nordeste 0 928.9 -- 63
2020-09-09 01:00:00 14.9 8 Nordeste 19 Nordeste 0 929.2 -- 60
2020-09-09 00:00:00 15.8 9 Nordeste 19 Nordeste 0 929.2 -- 58
2020-09-08 23:00:00 16.4 10 Nordeste 22 Nordeste 0 929.1 -- 56
2020-09-08 22:00:00 17.2 9 Norte 18 Nordeste 0 928.7 -- 49
2020-09-08 21:00:00 17.6 3 Norte 10 Nordeste 0 928.1 -- 46
2020-09-08 20:00:00 21.9 6 Nordeste 18 Nordeste 0 927.7 -- 29
2020-09-08 19:00:00 23.3 8 Nordeste 21 Nordeste 0 927.7 -- 26
2020-09-08 18:00:00 24.4 9 Nordeste 31 Nordeste 0 927.6 -- 25
2020-09-08 17:00:00 24.3 10 Nordeste 25 Este 0 928.1 -- 24
2020-09-08 16:00:00 23.9 9 Este 29 Nordeste 0 928.6 -- 26
2020-09-08 15:00:00 23.4 12 Este 33 Nordeste 0 929.1 -- 29
2020-09-08 14:00:00 21.6 12 Nordeste 31 Nordeste 0 929.5 -- 30
2020-09-08 13:00:00 20.1 14 Nordeste 37 Nordeste 0 929.9 -- 38
2020-09-08 12:00:00 18.4 12 Este 36 Nordeste 0 930.5 -- 44
2020-09-08 11:00:00 16.3 14 Nordeste 42 Nordeste 0 930.8 -- 53
2020-09-08 10:00:00 14.2 13 Nordeste 32 Nordeste 0 930.9 -- 65
2020-09-08 09:00:00 11.4 13 Nordeste 32 Nordeste 0 930.7 -- 78
2020-09-08 08:00:00 9.7 12 Nordeste 34 Norte 0 930.4 -- 82
2020-09-08 07:00:00 9.6 17 Nordeste 36 Nordeste 0 929.8 -- 80
2020-09-08 06:00:00 9.6 15 Norte 35 Nordeste 0 929.8 -- 79
2020-09-08 05:00:00 9.6 13 Nordeste 30 Nordeste 0 930.4 -- 80
2020-09-08 04:00:00 9.5 14 Nordeste 30 Norte 0 930.4 -- 79
2020-09-08 03:00:00 9.5 8 Nordeste 32 Nordeste 0 930.9 -- 77
2020-09-08 02:00:00 9.8 14 Nordeste 28 Nordeste 0 931.2 -- 77
2020-09-08 01:00:00 9.9 7 Este 18 Este 0 931.5 -- 78
2020-09-08 00:00:00 10.7 7 Este 28 Nordeste 0 931.4 -- 68
2020-09-07 23:00:00 12 11 Nordeste 31 Nordeste 0 931.1 -- 61
2020-09-07 22:00:00 13.1 11 Nordeste 28 Nordeste 0 930.8 -- 63
2020-09-07 21:00:00 14.5 13 Nordeste 37 Nordeste 0 929.8 -- 60
2020-09-07 20:00:00 16.3 15 Nordeste 45 Nordeste 0 929.4 -- 52
2020-09-07 19:00:00 18 18 Nordeste 44 Nordeste 0 928.9 -- 46
2020-09-07 18:00:00 18.9 15 Nordeste 36 Este 0 929.1 -- 43
2020-09-07 17:00:00 19.2 16 Nordeste 39 Nordeste 0 929.1 -- 43
2020-09-07 16:00:00 19.2 16 Nordeste 44 Norte 0 929.5 -- 44
2020-09-07 15:00:00 19 17 Nordeste 42 Nordeste 0 929.3 -- 43
2020-09-07 14:00:00 18.4 14 Nordeste 46 Nordeste 0 929.7 -- 45
2020-09-07 13:00:00 17.6 18 Nordeste 49 Nordeste 0 929.5 -- 45
2020-09-07 12:00:00 16.5 18 Nordeste 41 Nordeste 0 929.8 -- 47
2020-09-07 11:00:00 14.2 16 Nordeste 51 Nordeste 0 929.7 -- 65
2020-09-07 10:00:00 13.5 17 Nordeste 37 Nordeste 0 929 -- 64
2020-09-07 09:00:00 12 7 Este 15 Nordeste 0 928.8 -- 70
2020-09-07 08:00:00 9.4 6 Sudeste 21 Nordeste 0 928.4 -- 83
2020-09-07 07:00:00 9.6 5 Este 16 Nordeste 0 927.9 -- 84
2020-09-07 06:00:00 9.2 3 Norte 10 Nordeste 0 927.6 -- 85
2020-09-07 05:00:00 10 3 Nordeste 15 Nordeste 0 927.6 -- 83
2020-09-07 04:00:00 10.8 4 Nordeste 21 Este 0 927.6 -- 82
2020-09-07 03:00:00 11.3 6 Nordeste 24 Nordeste 0 927.8 -- 80
2020-09-07 02:00:00 10.8 6 Nordeste 12 Nordeste 0 928.1 -- 79
2020-09-07 01:00:00 10.9 4 Nordeste 18 Este 0 927.9 -- 77
2020-09-07 00:00:00 11.9 10 Este 22 Este 0 927.8 -- 74
2020-09-06 23:00:00 12.4 8 Nordeste 29 Nordeste 0 927.6 -- 73
2020-09-06 22:00:00 13.3 12 Nordeste 40 Este 0 927.2 -- 65
2020-09-06 21:00:00 14.3 15 Nordeste 40 Nordeste 0 926.8 -- 58
2020-09-06 20:00:00 16.2 19 Nordeste 43 Nordeste 0 926.4 -- 54
2020-09-06 19:00:00 18.6 14 Este 37 Este 0 926 -- 48
2020-09-06 18:00:00 20.6 15 Este 36 Nordeste 0 925.8 -- 40
2020-09-06 17:00:00 21.5 15 Este 39 Este 0 925.8 -- 39
2020-09-06 16:00:00 21.1 15 Nordeste 38 Nordeste 0 926.2 -- 40
2020-09-06 15:00:00 20.9 15 Este 41 Nordeste 0 926.5 -- 47
2020-09-06 14:00:00 20.4 14 Este 39 Nordeste 0 926.8 -- 49
2020-09-06 13:00:00 19.6 15 Este 36 Este 0 927.1 -- 52
2020-09-06 12:00:00 18.5 15 Este 37 Nordeste 0 927.3 -- 56
2020-09-06 11:00:00 17.2 15 Este 37 Este 0 927.3 -- 63
2020-09-06 10:00:00 15 14 Nordeste 33 Este 0 927.1 -- 74
2020-09-06 09:00:00 13.8 10 Nordeste 25 Nordeste 0 927.1 -- 81
2020-09-06 08:00:00 13 10 Nordeste 27 Este 0 926.8 -- 83
2020-09-06 07:00:00 13 11 Nordeste 25 Nordeste 0 926.6 -- 84
2020-09-06 06:00:00 12.7 8 Nordeste 16 Nordeste 0 927 -- 84
2020-09-06 05:00:00 13.5 8 Nordeste 27 Nordeste 0 927.3 -- 81
2020-09-06 04:00:00 14 12 Nordeste 40 Nordeste 0 927.5 -- 79
2020-09-06 03:00:00 14.5 13 Nordeste 33 Este 0 927.8 -- 78
2020-09-06 02:00:00 14.7 13 Este 32 Nordeste 0 928.2 -- 78
2020-09-06 01:00:00 14.7 9 Nordeste 27 Este 0 928.1 -- 79
2020-09-06 00:00:00 14.9 9 Nordeste 27 Este 0 927.8 -- 78
2020-09-05 23:00:00 15.4 9 Nordeste 38 Nordeste 0 927.8 -- 77
2020-09-05 22:00:00 16 14 Nordeste 41 Nordeste 0 927.4 -- 74
2020-09-05 21:00:00 17.1 18 Nordeste 35 Nordeste 0 926.9 -- 70
2020-09-05 20:00:00 19.7 14 Este 38 Este 0 926.8 -- 59
2020-09-05 19:00:00 22.6 16 Este 40 Este 0 926.6 -- 50
2020-09-05 18:00:00 24.9 15 Este 39 Este 0 926.7 -- 43
2020-09-05 17:00:00 26 14 Este 37 Este 0 926.6 -- 41
2020-09-05 16:00:00 26 14 Nordeste 39 Norte 0 927.3 -- 41
2020-09-05 15:00:00 25.8 14 Nordeste 35 Nordeste 0 927.8 -- 41
2020-09-05 14:00:00 25.5 13 Este 41 Este 0 928.1 -- 42
2020-09-05 13:00:00 24 13 Nordeste 38 Nordeste 0 928.4 -- 47
2020-09-05 12:00:00 23.2 12 Este 34 Nordeste 0 928.6 -- 50
2020-09-05 11:00:00 21.8 11 Nordeste 30 Este 0 928.7 -- 52
2020-09-05 10:00:00 19.3 11 Nordeste 27 Nordeste 0 928.8 -- 64
2020-09-05 09:00:00 16.6 10 Nordeste 25 Nordeste 0 928.4 -- 75
2020-09-05 08:00:00 15 8 Nordeste 20 Nordeste 0 928.1 -- 76
2020-09-05 07:00:00 14.8 5 Nordeste 12 Nordeste 0 927.5 -- 68
2020-09-05 06:00:00 15 4 Nordeste 12 Nordeste 0 927.4 -- 65
2020-09-05 05:00:00 17.3 5 Nordeste 21 Norte 0 927.5 -- 53
2020-09-05 04:00:00 18.6 7 Nordeste 19 Nordeste 0 927.6 -- 45
2020-09-05 03:00:00 19 8 Nordeste 19 Nordeste 0 927.7 -- 41
2020-09-05 02:00:00 19.2 7 Nordeste 18 Nordeste 0 928 -- 41
2020-09-05 01:00:00 20.2 6 Nordeste 23 Nordeste 0 928.1 -- 39
2020-09-05 00:00:00 21.2 10 Nordeste 22 Nordeste 0 928.2 -- 36
2020-09-04 23:00:00 20.9 10 Nordeste 22 Nordeste 0 928.2 -- 41
2020-09-04 22:00:00 17.4 2 Norte 4 Norte 0 927.8 -- 69
2020-09-04 21:00:00 20.3 3 Norte 6 Norte 0 927.4 -- 59
2020-09-04 20:00:00 24.5 0 Calma 8 Noroeste 0 927.1 -- 46
2020-09-04 19:00:00 28.9 4 Norte 14 Noroeste 0 927.2 -- 23
2020-09-04 18:00:00 31.1 5 Norte 12 Norte 0 927.3 -- 15
2020-09-04 17:00:00 31.6 4 Oeste 15 Sudoeste 0 927.5 -- 17
2020-09-04 16:00:00 31.9 3 Oeste 17 Sudoeste 0 928.1 -- 16
2020-09-04 15:00:00 30.6 6 Este 14 Sudeste 0 928.6 -- 20
2020-09-04 14:00:00 28.7 4 Noroeste 11 Sudoeste 0 929.3 -- 22
2020-09-04 13:00:00 27.5 2 Nordeste 9 Este 0 930 -- 29
2020-09-04 12:00:00 25.3 3 Sur 10 Sudeste 0 930.2 -- 31
2020-09-04 11:00:00 22.7 4 Este 14 Este 0 930.4 -- 33
2020-09-04 10:00:00 19.7 5 Este 14 Nordeste 0 930 -- 44
2020-09-04 09:00:00 12.8 3 Norte 8 Norte 0 929.8 -- 76
2020-09-04 08:00:00 9.6 2 Nordeste 8 Nordeste 0 929.5 -- 79
2020-09-04 07:00:00 10 4 Nordeste 10 Nordeste 0 929.1 -- 78
2020-09-04 06:00:00 10.6 4 Nordeste 8 Nordeste 0 928.8 -- 77
2020-09-04 05:00:00 11.1 3 Nordeste 9 Nordeste 0 929 -- 75
2020-09-04 04:00:00 12.9 4 Nordeste 10 Nordeste 0 929.1 -- 68
2020-09-04 03:00:00 15.8 5 Nordeste 15 Nordeste 0 929.1 -- 55
2020-09-04 02:00:00 16.7 5 Nordeste 17 Nordeste 0 929.3 -- 54
2020-09-04 01:00:00 17.2 4 Norte 20 Nordeste 0 929.3 -- 56
2020-09-04 00:00:00 17.4 7 Nordeste 14 Nordeste 0 929.3 -- 56
2020-09-03 23:00:00 14.2 3 Nordeste 10 Nordeste 0 929.1 -- 75
2020-09-03 22:00:00 16.5 3 Norte 4 Norte 0 928.5 -- 71
2020-09-03 21:00:00 19.7 0 Calma 4 Sudeste 0 927.9 -- 62
2020-09-03 20:00:00 23.7 0 Calma 5 Noroeste 0 927.4 -- 47
2020-09-03 19:00:00 27.7 3 Sur 10 Norte 0 927.5 -- 24
2020-09-03 18:00:00 29.3 3 Sudoeste 14 Norte 0 927.4 -- 21
2020-09-03 17:00:00 28.8 6 Noroeste 15 Norte 0 927.5 -- 21
2020-09-03 16:00:00 29.2 4 Sudeste 13 Sudoeste 0 927.8 -- 24
2020-09-03 15:00:00 28.2 4 Este 14 Sudoeste 0 928.3 -- 30
2020-09-03 14:00:00 26.3 4 Oeste 14 Sur 0 928.6 -- 33
2020-09-03 13:00:00 24.3 3 Norte 10 Sudeste 0 928.8 -- 43
2020-09-03 12:00:00 22.6 3 Sudeste 12 Sudeste 0 929 -- 47
2020-09-03 11:00:00 20.1 4 Sudeste 9 Sudeste 0 929 -- 52
2020-09-03 10:00:00 16.3 2 Noroeste 5 Noroeste 0 928.7 -- 74
2020-09-03 09:00:00 10.7 0 Calma 2 Noroeste 0 928.4 -- --
2020-09-03 08:00:00 8.2 0 Calma 4 Norte 0 928 -- --
2020-09-03 07:00:00 8.6 3 Noroeste 8 Norte 0 927.5 -- --
2020-09-03 06:00:00 9.1 5 Norte 8 Norte 0 927.3 -- 100
2020-09-03 05:00:00 9.4 4 Norte 5 Norte 0 927.5 -- 92
2020-09-03 04:00:00 10.4 5 Norte 9 Norte 0 927.3 -- 87
2020-09-03 03:00:00 10.9 3 Norte 7 Noroeste 0 927.2 -- 87
2020-09-03 02:00:00 12.2 3 Norte 10 Nordeste 0 927.4 -- 83
2020-09-03 01:00:00 13.5 4 Norte 15 Nordeste 0 927.2 -- 77
2020-09-03 00:00:00 15.6 5 Nordeste 16 Nordeste 0 926.9 -- 70
2020-09-02 23:00:00 16.6 7 Nordeste 19 Nordeste 0 926.7 -- 64
2020-09-02 22:00:00 18.2 8 Nordeste 17 Nordeste 0 926.2 -- 57
2020-09-02 21:00:00 19.4 4 Nordeste 11 Este 0 925.5 -- 47
2020-09-02 20:00:00 22.9 5 Nordeste 13 Sudeste 0 924.9 -- 33
2020-09-02 19:00:00 24.6 4 Noroeste 18 Noroeste 0 924.6 -- 31
2020-09-02 18:00:00 25.4 5 Norte 15 Norte 0 924.5 -- 27
2020-09-02 17:00:00 25.2 5 Nordeste 18 Sudeste 0 924.5 -- 29
2020-09-02 16:00:00 24.5 6 Norte 17 Norte 0 924.7 -- 32
2020-09-02 15:00:00 23.7 7 Norte 21 Sudeste 0 925.1 -- 35
2020-09-02 14:00:00 22.3 7 Nordeste 22 Nordeste 0 925.1 -- 40
2020-09-02 13:00:00 21.1 9 Nordeste 26 Sudeste 0 925.4 -- 43
2020-09-02 12:00:00 19.6 10 Este 28 Este 0 925.7 -- 51
2020-09-02 11:00:00 17.5 13 Nordeste 30 Nordeste 0 925.7 -- 58
2020-09-02 10:00:00 15.2 11 Nordeste 31 Este 0 925.4 -- 69
2020-09-02 09:00:00 11.9 6 Nordeste 14 Nordeste 0 925.1 -- 84
2020-09-02 08:00:00 10 4 Nordeste 19 Nordeste 0 925 -- 88
2020-09-02 07:00:00 10.4 9 Nordeste 21 Norte 0 924.4 -- 86
2020-09-02 06:00:00 10 5 Nordeste 14 Nordeste 0 924.1 -- 85
2020-09-02 05:00:00 10.7 5 Nordeste 18 Este 0 923.8 -- 84
2020-09-02 04:00:00 11.3 6 Nordeste 21 Nordeste 0 923.8 -- 83
2020-09-02 03:00:00 11.7 8 Nordeste 21 Nordeste 0 923.6 -- 81
2020-09-02 02:00:00 11.9 6 Nordeste 19 Este 0 923.7 -- 81
2020-09-02 01:00:00 12.5 7 Nordeste 19 Nordeste 0 923.5 -- 78
2020-09-02 00:00:00 13.5 9 Nordeste 31 Nordeste 0 923.4 -- 69
2020-09-01 23:00:00 14.5 14 Nordeste 35 Nordeste 0 923 -- 67
2020-09-01 22:00:00 15.5 17 Nordeste 41 Nordeste 0 922.5 -- 65
2020-09-01 21:00:00 17.5 14 Nordeste 38 Nordeste 0 921.8 -- 57
2020-09-01 20:00:00 20.6 13 Nordeste 36 Nordeste 0 921 -- 38
2020-09-01 19:00:00 23 13 Nordeste 32 Nordeste 0 920.4 -- 28
2020-09-01 18:00:00 24.9 9 Nordeste 26 Este 0 920.2 -- 23
2020-09-01 17:00:00 24.5 5 Norte 16 Norte 0 920.3 -- 23
2020-09-01 16:00:00 25 7 Norte 28 Nordeste 0 920.7 -- 23
2020-09-01 15:00:00 23.8 4 Norte 18 Norte 0 921.2 -- 23
2020-09-01 14:00:00 22.7 4 Norte 15 Noroeste 0 921.5 -- 27
2020-09-01 13:00:00 21.7 4 Norte 14 Noroeste 0 922 -- 30
2020-09-01 12:00:00 21 4 Este 12 Nordeste 0 922.4 -- 33
2020-09-01 11:00:00 19.8 6 Este 15 Nordeste 0 922.6 -- 37
2020-09-01 10:00:00 16.5 6 Nordeste 16 Nordeste 0 922.5 -- 51
2020-09-01 09:00:00 13.6 5 Nordeste 17 Nordeste 0 922.6 -- 64
2020-09-01 08:00:00 10.2 2 Norte 7 Norte 0 922.9 -- 82
2020-09-01 07:00:00 10.9 3 Norte 8 Nordeste 0 922.7 -- 80
2020-09-01 06:00:00 12.7 4 Norte 17 Este 0 922.7 -- 68
2020-09-01 05:00:00 12.7 4 Nordeste 19 Nordeste 0 923 -- 67
2020-09-01 04:00:00 12.7 3 Nordeste 13 Norte 0 923.4 -- 68
2020-09-01 03:00:00 12.2 4 Norte 10 Norte 0 923.8 -- 71
2020-09-01 02:00:00 9.2 3 Nordeste 9 Nordeste 0 923.6 -- 82
2020-09-01 01:00:00 8.6 0 Calma 5 Noroeste 0 923.9 -- 84
2020-09-01 00:00:00 9.5 2 Noroeste 14 Nordeste 0 923.9 -- 81
2020-08-31 23:00:00 11.1 0 Calma 5 Noroeste 0 924 -- 74
2020-08-31 22:00:00 13.4 0 Calma 4 Norte 0 924.1 -- 70
2020-08-31 21:00:00 15.9 0 Calma 4 Norte 0 923.9 -- 61
2020-08-31 20:00:00 18.6 2 Norte 8 Noroeste 0 923.7 -- 49
2020-08-31 19:00:00 21 3 Oeste 12 Sudoeste 0 924.1 -- 32
2020-08-31 18:00:00 20.6 4 Oeste 16 Sudoeste 0 924.3 -- 31
2020-08-31 17:00:00 21.6 5 Sudoeste 14 Sudoeste 0 924.7 -- 32
2020-08-31 16:00:00 22.3 4 Sudoeste 19 Sudoeste 0 925.1 -- 28
2020-08-31 15:00:00 20.9 5 Noroeste 17 Sudoeste 0 925.7 -- 32
2020-08-31 14:00:00 19.9 4 Oeste 16 Oeste 0 926.3 -- 36
2020-08-31 13:00:00 18.8 5 Oeste 14 Sudoeste 0 926.6 -- 39
2020-08-31 12:00:00 16.9 3 Norte 12 Sudoeste 0 926.9 -- 46
2020-08-31 11:00:00 14.5 3 Sudeste 14 Este 0 926.8 -- 56
2020-08-31 10:00:00 11.8 5 Nordeste 15 Nordeste 0 927 -- 71
2020-08-31 09:00:00 8.6 7 Norte 14 Norte 0 926.8 -- 85
2020-08-31 08:00:00 5.4 3 Norte 9 Norte 0 926.7 -- 98
2020-08-31 07:00:00 5.5 3 Norte 11 Norte 0 926.3 -- 89
2020-08-31 06:00:00 6.1 4 Norte 10 Norte 0 926.3 -- 89
2020-08-31 05:00:00 6.7 5 Nordeste 13 Norte 0 926.6 -- 87
2020-08-31 04:00:00 7.2 5 Norte 13 Norte 0 927 -- 86
2020-08-31 03:00:00 7.4 4 Nordeste 17 Nordeste 0 927.1 -- 83
2020-08-31 02:00:00 8.1 6 Nordeste 17 Nordeste 0 927.2 -- 81
2020-08-31 01:00:00 8.6 10 Nordeste 21 Este 0 927.1 -- 78
2020-08-31 00:00:00 9.2 8 Nordeste 20 Este 0 926.9 -- 75
2020-08-30 23:00:00 10.2 8 Nordeste 24 Nordeste 0 926.6 -- 71
2020-08-30 22:00:00 11.3 9 Nordeste 27 Nordeste 0 925.8 -- 69
2020-08-30 21:00:00 13.3 10 Nordeste 29 Este 0 925.1 -- 58
2020-08-30 20:00:00 15.3 12 Nordeste 35 Este 0 924.5 -- 48
2020-08-30 19:00:00 18.1 13 Nordeste 32 Nordeste 0 923.9 -- 40
2020-08-30 18:00:00 18.9 7 Este 23 Este 0 923.6 -- 33
2020-08-30 17:00:00 19.9 5 Este 19 Este 0 923.5 -- 33
2020-08-30 16:00:00 17.7 6 Norte 15 Sur 0 923.7 -- 35
2020-08-30 15:00:00 17.2 5 Sudoeste 15 Sudeste 0 924 -- 39
2020-08-30 14:00:00 16.2 3 Norte 17 Este 0 924.2 -- 43
2020-08-30 13:00:00 16.5 3 Este 12 Sudoeste 0 924.1 -- 42
2020-08-30 12:00:00 15 4 Sudoeste 12 Sudoeste 0 924 -- 52
2020-08-30 11:00:00 11 4 Sudoeste 10 Sudoeste 0 923.8 -- 72
2020-08-30 10:00:00 8.7 2 Oeste 6 Noroeste 0 923.6 -- 84
2020-08-30 09:00:00 5.7 2 Nordeste 5 Norte 0 923.1 -- --
2020-08-30 08:00:00 3.9 0 Calma 5 Este 0 922.7 -- --
2020-08-30 07:00:00 3.9 2 Sudeste 5 Sur 0 922.3 -- --
2020-08-30 06:00:00 4.2 0 Calma 3 Noroeste 0 922 -- --
2020-08-30 05:00:00 4.5 2 Norte 5 Noroeste 0 922 -- --
2020-08-30 04:00:00 4.8 0 Calma 3 Sudeste 0 921.9 -- --
2020-08-30 03:00:00 5.3 0 Calma 3 Oeste 0 922 -- 96
2020-08-30 02:00:00 6 0 Calma 7 Sudoeste 0 922.2 -- 88
2020-08-30 01:00:00 6.8 3 Oeste 5 Norte 0 922.2 -- 87
2020-08-30 00:00:00 7.8 0 Calma 9 Noroeste 0 921.8 -- 81
2020-08-29 23:00:00 9.3 3 Noroeste 8 Noroeste 0 921.4 -- 74
2020-08-29 22:00:00 10.9 3 Norte 21 Nordeste 0 920.7 -- 67
2020-08-29 21:00:00 12.4 9 Norte 27 Nordeste 0 920 -- 62
2020-08-29 20:00:00 14.3 8 Nordeste 37 Noroeste 0 919.5 -- 61
2020-08-29 19:00:00 15.3 16 Noroeste 46 Noroeste 0 919.1 -- 52
2020-08-29 18:00:00 17.2 16 Norte 45 Noroeste 0 918.3 -- 46
2020-08-29 17:00:00 19.3 15 Noroeste 37 Noroeste 0 917.6 -- 38
2020-08-29 16:00:00 17.2 15 Norte 40 Norte 0 917.6 -- 47
2020-08-29 15:00:00 18.2 12 Noroeste 34 Oeste 0 917.6 -- 45
2020-08-29 14:00:00 15.3 14 Norte 39 Noroeste 0 917.8 -- 53
2020-08-29 13:00:00 15.7 12 Noroeste 31 Noroeste 0 917.7 -- 53
2020-08-29 12:00:00 16.9 15 Noroeste 35 Norte 0 917.4 -- 46
2020-08-29 11:00:00 15.3 13 Noroeste 33 Noroeste 0 917.1 -- 52
2020-08-29 10:00:00 13 5 Noroeste 13 Noroeste 0 917.2 -- 65
2020-08-29 09:00:00 9.2 3 Norte 8 Noroeste 0 917.3 -- 84
2020-08-29 08:00:00 6.2 2 Noroeste 13 Nordeste 0 917.1 -- 98
2020-08-29 07:00:00 5.9 2 Noroeste 14 Oeste 0 916.8 -- 100
2020-08-29 06:00:00 6.3 0 Calma 5 Sudoeste 0 916.7 -- 96
2020-08-29 05:00:00 6.7 3 Oeste 5 Oeste 0 916.9 -- 89
2020-08-29 04:00:00 7.4 0 Calma 11 Noroeste 0 917.2 -- 85
2020-08-29 03:00:00 8.5 2 Norte 7 Noroeste 0 917.6 -- 87
2020-08-29 02:00:00 10 3 Noroeste 5 Sudoeste 0 918 -- 88
2020-08-29 01:00:00 10.8 0 Calma 4 Noroeste 0 918.2 -- 83
2020-08-29 00:00:00 12.3 2 Nordeste 12 Nordeste 0 918 -- 78
2020-08-28 23:00:00 13 4 Norte 20 Nordeste 0 918 -- 74
2020-08-28 22:00:00 14.1 9 Nordeste 30 Nordeste 0 917.7 -- 69
2020-08-28 21:00:00 15.5 12 Nordeste 32 Nordeste 0 917 -- 64
2020-08-28 20:00:00 17.4 13 Nordeste 33 Nordeste 0 916.4 -- 58
2020-08-28 19:00:00 19.9 17 Nordeste 36 Nordeste 0 916.3 -- 52
2020-08-28 18:00:00 24.5 5 Oeste 23 Noroeste 0 915.9 -- 27
2020-08-28 17:00:00 25.8 5 Oeste 31 Oeste 0 915.9 -- 21
2020-08-28 16:00:00 26.5 7 Sudoeste 26 Sudoeste 0 916.4 -- 21
2020-08-28 15:00:00 25.8 6 Oeste 22 Oeste 0 917.2 -- 20
2020-08-28 14:00:00 24.9 4 Oeste 22 Sudoeste 0 917.8 -- 30
2020-08-28 13:00:00 24.7 5 Sudoeste 27 Sudoeste 0 918.5 -- 23
2020-08-28 12:00:00 23.3 4 Oeste 17 Sudoeste 0 918.8 -- 43
2020-08-28 11:00:00 21.6 5 Sudoeste 17 Sudoeste 0 919.2 -- 65
2020-08-28 10:00:00 18.6 3 Sudoeste 19 Sudeste 0 919.3 -- 81
2020-08-28 09:00:00 18.6 6 Este 14 Sudeste 0 919.6 -- 82
2020-08-28 08:00:00 17.6 3 Este 9 Sudeste 0 919.7 -- 87
2020-08-28 07:00:00 17.3 0 Calma 15 Norte 0 920 -- 89
2020-08-28 06:00:00 17 0 Calma 4 Norte 0 920.4 -- 89
2020-08-28 05:00:00 17.1 0 Calma 8 Norte 0 920.7 -- 87
2020-08-28 04:00:00 17.2 4 Norte 10 Norte 0 921.3 -- 87
2020-08-28 03:00:00 17 4 Norte 10 Noroeste 0 921.9 -- 88
2020-08-28 02:00:00 17.4 3 Noroeste 6 Noroeste 0 922.5 -- 85
2020-08-28 01:00:00 18.2 0 Calma 10 Nordeste 0 922.9 -- 82
2020-08-28 00:00:00 18.6 5 Nordeste 17 Nordeste 0 923 -- 81
2020-08-27 23:00:00 19.1 8 Nordeste 21 Nordeste 0 923.2 -- 79
2020-08-27 22:00:00 20.9 11 Nordeste 25 Nordeste 0 923 -- 71
2020-08-27 21:00:00 23.1 0 Calma 5 Norte 0 922.4 -- 57
2020-08-27 20:00:00 26.4 3 Norte 9 Noroeste 0 922.5 -- 41
2020-08-27 19:00:00 30.6 3 Oeste 18 Sudoeste 0 922.8 -- 25
2020-08-27 18:00:00 31.5 7 Sudoeste 22 Oeste 0 923.3 -- 19
2020-08-27 17:00:00 31.7 5 Oeste 21 Sudoeste 0 923.7 -- 27
2020-08-27 16:00:00 31.8 7 Sudoeste 25 Sudoeste 0 924.3 -- 24
2020-08-27 15:00:00 30.5 4 Oeste 18 Sudoeste 0 924.9 -- 28
2020-08-27 14:00:00 29.1 4 Sur 15 Sudoeste 0 925.6 -- 39
2020-08-27 13:00:00 27 4 Oeste 12 Sudeste 0 926.4 -- 45
2020-08-27 12:00:00 25.9 5 Sudeste 23 Este 0 926.8 -- 49
2020-08-27 11:00:00 23.4 6 Este 14 Nordeste 0 926.8 -- 60
2020-08-27 10:00:00 20.7 5 Nordeste 9 Nordeste 0 927 -- 75
2020-08-27 09:00:00 15.4 2 Sudeste 4 Sudeste 0 926.8 -- --
2020-08-27 08:00:00 13.3 0 Calma 3 Norte 0 926.5 -- --
2020-08-27 07:00:00 13.3 0 Calma 4 Norte 0 926.6 -- --
2020-08-27 06:00:00 14.1 2 Norte 8 Norte 0 926.4 -- --
2020-08-27 05:00:00 14.4 2 Norte 4 Norte 0 926.8 -- 98
2020-08-27 04:00:00 15.2 0 Calma 4 Norte 0 927.1 -- 88
2020-08-27 03:00:00 16.5 0 Calma 10 Nordeste 0 927.3 -- 86
2020-08-27 02:00:00 17.9 3 Nordeste 12 Norte 0 927.3 -- 85
2020-08-27 01:00:00 19.1 6 Nordeste 22 Nordeste 0 927.4 -- 82
2020-08-27 00:00:00 20.2 8 Nordeste 20 Nordeste 0 927.4 -- 76
2020-08-26 23:00:00 20.8 6 Nordeste 18 Nordeste 0 927.2 -- 62
2020-08-26 22:00:00 19.9 0 Calma 3 Norte 0 926.6 -- 70
2020-08-26 21:00:00 22.9 2 Norte 6 Norte 0 926 -- 63
2020-08-26 20:00:00 26.8 2 Norte 11 Noroeste 0 925.7 -- 42
2020-08-26 19:00:00 30.8 2 Noroeste 19 Norte 0 925.9 -- 25
2020-08-26 18:00:00 31.2 6 Noroeste 18 Sudoeste 0 926.1 -- 23
2020-08-26 17:00:00 31.4 4 Noroeste 17 Sudoeste 0 926.3 -- 24
2020-08-26 16:00:00 31.3 6 Oeste 25 Sudoeste 0 926.5 -- 21
2020-08-26 15:00:00 29.4 3 Norte 12 Sur 0 926.9 -- 28
2020-08-26 14:00:00 27.7 4 Noroeste 11 Norte 0 927.1 -- 36
2020-08-26 13:00:00 25.8 6 Norte 19 Norte 0 927.5 -- 41
2020-08-26 12:00:00 23.5 7 Este 19 Este 0 927.7 -- 53
2020-08-26 11:00:00 21.3 7 Este 28 Nordeste 0 927.7 -- 63
2020-08-26 10:00:00 18.4 10 Nordeste 23 Nordeste 0 927.4 -- 75
2020-08-26 09:00:00 15.3 6 Nordeste 16 Nordeste 0 927.1 -- 93
2020-08-26 08:00:00 12.7 3 Nordeste 7 Nordeste 0 926.6 -- --
2020-08-26 07:00:00 12.4 2 Norte 6 Noroeste 0 926.3 -- 98
2020-08-26 06:00:00 13.5 4 Norte 9 Norte 0 926 -- 96
2020-08-26 05:00:00 13.8 4 Norte 9 Nordeste 0 926 -- 91
2020-08-26 04:00:00 13.9 2 Norte 13 Oeste 0 926.3 -- 84
2020-08-26 03:00:00 15.2 4 Norte 10 Nordeste 0 926.5 -- 84
2020-08-26 02:00:00 16 5 Norte 14 Nordeste 0 926.4 -- 81
2020-08-26 01:00:00 16.8 3 Norte 18 Nordeste 0 926.3 -- 76
2020-08-26 00:00:00 18.4 9 Nordeste 23 Nordeste 0 925.8 -- 66
2020-08-25 23:00:00 19.5 8 Este 24 Nordeste 0 925.4 -- 66
2020-08-25 22:00:00 21.6 12 Nordeste 26 Nordeste 0 924.6 -- 57
2020-08-25 21:00:00 22.6 0 Calma 6 Norte 0 923.5 -- 54
2020-08-25 20:00:00 26.3 4 Norte 10 Noroeste 0 923 -- 34
2020-08-25 19:00:00 30.6 4 Noroeste 16 Sudoeste 0 923 -- 19
2020-08-25 18:00:00 32.3 5 Sudoeste 22 Sudoeste 0 922.9 -- 16
2020-08-25 17:00:00 32.3 7 Sudoeste 27 Sudoeste 0 922.9 -- 16
2020-08-25 16:00:00 32 10 Sudoeste 31 Sudoeste 0 923 -- 20
2020-08-25 15:00:00 31.2 4 Sudoeste 35 Sudoeste 0 923.4 -- 24
2020-08-25 14:00:00 29.9 9 Sudoeste 29 Sudoeste 0 923.6 -- 29
2020-08-25 13:00:00 28.1 8 Sudoeste 22 Sudoeste 0 923.9 -- 35
2020-08-25 12:00:00 25.3 4 Sur 11 Sur 0 924.2 -- 42
2020-08-25 11:00:00 22 0 Calma 8 Sudeste 0 924 -- 49
2020-08-25 10:00:00 18.6 3 Este 9 Sudeste 0 923.7 -- 59
2020-08-25 09:00:00 12.7 2 Norte 5 Sudeste 0 923.6 -- 87
2020-08-25 08:00:00 9.9 0 Calma 15 Nordeste 0 923.2 -- --
2020-08-25 07:00:00 9.5 0 Calma 4 Noroeste 0 922.9 -- --
2020-08-25 06:00:00 9.8 0 Calma 5 Noroeste 0 922.9 -- --
2020-08-25 05:00:00 10.3 0 Calma 4 Norte 0 922.9 -- --
2020-08-25 04:00:00 10.9 2 Noroeste 14 Norte 0 922.9 -- 100
2020-08-25 03:00:00 11.3 0 Calma 5 Noroeste 0 923 -- 93
2020-08-25 02:00:00 12.1 3 Norte 4 Noroeste 0 923 -- 89
2020-08-25 01:00:00 12.6 0 Calma 3 Norte 0 923.1 -- 87
2020-08-25 00:00:00 13.6 0 Calma 3 Noroeste 0 923.4 -- 85
2020-08-24 23:00:00 14.8 2 Noroeste 4 Noroeste 0 923.6 -- 79
2020-08-24 22:00:00 17 2 Norte 4 Norte 0 923.4 -- 74
2020-08-24 21:00:00 20.4 2 Norte 4 Norte 0 922.9 -- 65
2020-08-24 20:00:00 23.6 3 Norte 9 Sudeste 0 923 -- 49
2020-08-24 19:00:00 27.6 2 Sudeste 10 Sudeste 0 923.1 -- 28
2020-08-24 18:00:00 27.5 4 Este 15 Norte 0 923.7 -- 29
2020-08-24 17:00:00 27 4 Noroeste 13 Noroeste 0 924.1 -- 27
2020-08-24 16:00:00 26.5 5 Noroeste 14 Sudoeste 0 924.7 -- 32
2020-08-24 15:00:00 25.4 4 Oeste 12 Sudoeste 0 925.6 -- 37
2020-08-24 14:00:00 23.8 5 Nordeste 14 Norte 0 925.9 -- 43
2020-08-24 13:00:00 23 5 Este 19 Nordeste 0 926.5 -- 49
2020-08-24 12:00:00 21 7 Nordeste 20 Nordeste 0 926.9 -- 58
2020-08-24 11:00:00 18.4 9 Nordeste 22 Nordeste 0 927.3 -- 64
2020-08-24 10:00:00 16.1 8 Nordeste 19 Este 0 927.2 -- 74
2020-08-24 09:00:00 12.9 5 Este 13 Este 0 927.3 -- --
2020-08-24 08:00:00 10.9 4 Norte 11 Nordeste 0 927.3 -- --
2020-08-24 07:00:00 10.4 3 Norte 15 Nordeste 0 926.9 -- --
2020-08-24 06:00:00 10.7 3 Norte 7 Nordeste 0 927.2 -- 100
2020-08-24 05:00:00 11.7 0 Calma 8 Norte 0 927.5 -- 92
2020-08-24 04:00:00 12.4 4 Nordeste 11 Nordeste 0 927.6 -- 89
2020-08-24 03:00:00 12.9 5 Nordeste 13 Nordeste 0 927.6 -- 88
2020-08-24 02:00:00 13.3 5 Nordeste 15 Nordeste 0 927.7 -- 86
2020-08-24 01:00:00 14 6 Nordeste 22 Nordeste 0 928.1 -- 82
2020-08-24 00:00:00 15.2 10 Nordeste 29 Nordeste 0 928 -- 80
2020-08-23 23:00:00 16.5 12 Nordeste 31 Nordeste 0 928 -- 74
2020-08-23 22:00:00 18.5 10 Nordeste 22 Nordeste 0 927.7 -- 65
2020-08-23 21:00:00 21.3 10 Nordeste 29 Nordeste 0 927 -- 48
2020-08-23 20:00:00 24 9 Nordeste 20 Nordeste 0 927 -- 34
2020-08-23 19:00:00 26.2 6 Este 18 Este 0 927 -- 26
2020-08-23 18:00:00 27 3 Sudeste 16 Este 0 927.4 -- 29
2020-08-23 17:00:00 25.7 6 Este 17 Sudeste 0 927.9 -- 29
2020-08-23 16:00:00 25.1 6 Norte 18 Nordeste 0 928.5 -- 29
2020-08-23 15:00:00 24.4 6 Nordeste 19 Sudeste 0 929.1 -- 31
2020-08-23 14:00:00 23.3 4 Nordeste 17 Norte 0 929.5 -- 37
2020-08-23 13:00:00 22.1 8 Nordeste 22 Sudeste 0 930.2 -- 44
2020-08-23 12:00:00 20.1 7 Este 23 Nordeste 0 930.6 -- 55
2020-08-23 11:00:00 18.2 9 Este 26 Este 0 930.9 -- 63
2020-08-23 10:00:00 16 12 Nordeste 27 Nordeste 0 930.8 -- 75
2020-08-23 09:00:00 13.4 10 Nordeste 22 Nordeste 0 930.7 -- 87
2020-08-23 08:00:00 12.1 7 Nordeste 19 Nordeste 0 930.3 -- 97
2020-08-23 07:00:00 11.9 8 Nordeste 19 Nordeste 0 930 -- 99
2020-08-23 06:00:00 12 7 Nordeste 15 Nordeste 0 930 -- 99
2020-08-23 05:00:00 11.8 5 Nordeste 11 Norte 0 930.3 -- 100
2020-08-23 04:00:00 12.4 4 Nordeste 13 Norte 0 930.4 -- 89
2020-08-23 03:00:00 12.8 8 Nordeste 16 Nordeste 0 930.5 -- 89
2020-08-23 02:00:00 13 5 Nordeste 19 Nordeste 0 930.6 -- 88
2020-08-23 01:00:00 13.7 7 Nordeste 21 Nordeste 0 930.7 -- 86
2020-08-23 00:00:00 14.5 12 Nordeste 27 Nordeste 0 930.6 -- 84
2020-08-22 23:00:00 15.4 10 Nordeste 28 Nordeste 0 930.4 -- 81
2020-08-22 22:00:00 17.4 11 Nordeste 24 Nordeste 0 929.9 -- 74
2020-08-22 21:00:00 19.1 0 Calma 5 Noroeste 0 928.9 -- 64
2020-08-22 20:00:00 22.1 0 Calma 11 Sur 0 928.5 -- 48
2020-08-22 19:00:00 25.9 5 Sudeste 15 Sudoeste 0 928.4 -- 32
2020-08-22 18:00:00 26 3 Sur 16 Noroeste 0 928.6 -- 33
2020-08-22 17:00:00 25.3 4 Noroeste 15 Este 0 929 -- 31
2020-08-22 16:00:00 24.9 4 Sudoeste 12 Sur 0 929.6 -- 32
2020-08-22 15:00:00 23.9 4 Este 15 Sudeste 0 930 -- 47
2020-08-22 14:00:00 22.3 4 Sur 15 Este 0 930.1 -- 52
2020-08-22 13:00:00 19.4 4 Nordeste 14 Sudeste 0 930.5 -- 67
2020-08-22 12:00:00 16 4 Nordeste 18 Este 0 930.9 -- 81
2020-08-22 11:00:00 14.8 8 Este 19 Nordeste 0 930.5 -- 90
2020-08-22 10:00:00 13.5 5 Este 18 Nordeste 0 930 -- --
2020-08-22 09:00:00 12.7 5 Este 13 Sudeste 0.2 929.6 -- --
2020-08-22 08:00:00 10.6 2 Norte 5 Noroeste 0 929.3 -- --
2020-08-22 07:00:00 10.7 0 Calma 6 Este 0 928.7 -- --
2020-08-22 06:00:00 11.2 3 Norte 7 Nordeste 0 928.4 -- --
2020-08-22 05:00:00 11.7 3 Norte 17 Norte 0 927.9 -- 100
2020-08-22 04:00:00 12.6 7 Nordeste 20 Nordeste 0 927.4 -- 95
2020-08-22 03:00:00 12.5 5 Norte 12 Norte 0 927.4 -- 89
2020-08-22 02:00:00 12.7 3 Nordeste 16 Nordeste 0 927.3 -- 86
2020-08-22 01:00:00 12.5 0 Calma 3 Noroeste 0 926.8 -- 89
2020-08-22 00:00:00 13.2 0 Calma 5 Oeste 0 926.4 -- 87
2020-08-21 23:00:00 14.2 0 Calma 5 Sudoeste 0 926.1 -- 83
2020-08-21 22:00:00 15.7 2 Noroeste 6 Norte 0 925.4 -- 79
2020-08-21 21:00:00 18.8 0 Calma 11 Sudoeste 0 924.5 -- 65
2020-08-21 20:00:00 21.5 0 Calma 17 Oeste 0 923.9 -- 47
2020-08-21 19:00:00 24 4 Oeste 22 Sudoeste 0 923.7 -- 42
2020-08-21 18:00:00 24.3 6 Sudoeste 28 Sudoeste 0 923.5 -- 49
2020-08-21 17:00:00 24.3 9 Sudoeste 31 Sudoeste 0 923.5 -- 52
2020-08-21 16:00:00 23.3 9 Sudoeste 26 Sudoeste 0 923.7 -- 63
2020-08-21 15:00:00 21.4 8 Sudoeste 23 Sudoeste 0 923.9 -- 73
2020-08-21 14:00:00 19.5 2 Oeste 12 Sudoeste 0 923.7 -- 82
2020-08-21 13:00:00 18.5 4 Sudoeste 14 Sudoeste 0 923.6 -- 85
2020-08-21 12:00:00 18.8 2 Oeste 18 Oeste 0 923 -- 81
2020-08-21 11:00:00 18.2 6 Sudoeste 12 Sudoeste 0 922.6 -- 86
2020-08-21 10:00:00 17.7 4 Sudoeste 13 Sudoeste 0 922.1 -- 87
2020-08-21 09:00:00 17.2 4 Sudoeste 14 Sudoeste 0 921.6 -- 91
2020-08-21 08:00:00 16.7 6 Sudoeste 12 Sudoeste 0 921.1 -- --
2020-08-21 07:00:00 16.6 4 Sudoeste 15 Sudoeste 0 920.5 -- --
2020-08-21 06:00:00 16.7 6 Sudoeste 16 Sudoeste 0 920.3 -- --
2020-08-21 05:00:00 16.7 6 Sudoeste 13 Sudoeste 0 920.1 -- --
2020-08-21 04:00:00 16.6 5 Sudoeste 13 Sudoeste 0 919.8 -- --
2020-08-21 03:00:00 16.4 6 Sudoeste 15 Sudoeste 0 919.5 -- 100
2020-08-21 02:00:00 16.3 7 Sudoeste 20 Sudoeste 0.2 919.5 -- 99
2020-08-21 01:00:00 16.4 13 Sudoeste 31 Oeste 2.4 919.5 -- 88
2020-08-21 00:00:00 16.9 3 Oeste 12 Oeste 1.2 919 -- 89
2020-08-20 23:00:00 17.7 0 Calma 16 Noroeste 0.2 918.8 -- 87
2020-08-20 22:00:00 18.5 4 Sur 21 Oeste 0.2 918.3 -- 84
2020-08-20 21:00:00 20.2 6 Oeste 30 Noroeste 0.8 917.2 -- 83
2020-08-20 20:00:00 24.9 3 Noroeste 26 Sudoeste 0 915.4 -- 63
2020-08-20 19:00:00 27.7 12 Sudoeste 42 Sudoeste 0 914.8 -- 43
2020-08-20 18:00:00 29.8 17 Sudoeste 52 Sudoeste 0 914.9 -- 37
2020-08-20 17:00:00 29.3 18 Sudoeste 41 Sudoeste 0 914.8 -- 31
2020-08-20 16:00:00 26.7 12 Sudoeste 41 Sudoeste 0 915.3 -- 34
2020-08-20 15:00:00 28.1 15 Sudoeste 41 Sudoeste 0 916 -- 40
2020-08-20 14:00:00 26.7 13 Sudoeste 38 Sudoeste 0 916.3 -- 40
2020-08-20 13:00:00 26.6 12 Sudoeste 36 Sudoeste 0 916.7 -- 49
2020-08-20 12:00:00 24.8 13 Sudoeste 35 Sudoeste 0 916.8 -- 45
2020-08-20 11:00:00 23.6 13 Sudoeste 28 Sudoeste 0 916.8 -- 46
2020-08-20 10:00:00 20.8 7 Sur 17 Sur 0 916.6 -- 53
2020-08-20 09:00:00 16.9 4 Sur 10 Sudoeste 0 916.6 -- 62
2020-08-20 08:00:00 14.1 0 Calma 6 Sudeste 0 916.4 -- 85
2020-08-20 07:00:00 13.5 2 Este 4 Sudeste 0 916.1 -- 86
2020-08-20 06:00:00 13.7 0 Calma 4 Noroeste 0 916 -- 84
2020-08-20 05:00:00 14 0 Calma 4 Sur 0 916.1 -- 84
2020-08-20 04:00:00 13.6 2 Sudoeste 5 Sudoeste 0 915.9 -- 84
2020-08-20 03:00:00 13.1 0 Calma 5 Noroeste 0 916.2 -- 86
2020-08-20 02:00:00 12.8 0 Calma 3 Noroeste 0 916.5 -- 83
2020-08-20 01:00:00 13.5 0 Calma 5 Sudeste 0 916.3 -- 78
2020-08-20 00:00:00 14.8 2 Norte 5 Noroeste 0 916 -- 75
2020-08-19 23:00:00 16.4 3 Sudoeste 10 Sudoeste 0 915.8 -- 65
2020-08-19 22:00:00 18.5 3 Sudoeste 13 Sudoeste 0 915.6 -- 52
2020-08-19 21:00:00 23.3 6 Sudoeste 28 Sudoeste 0 915 -- 26
2020-08-19 20:00:00 26.5 12 Sudoeste 41 Sudoeste 0 914.9 -- 19
2020-08-19 19:00:00 29.1 12 Sudoeste 39 Sudoeste 0 915 -- 15
2020-08-19 18:00:00 29.8 10 Sudoeste 42 Sudoeste 0 915.5 -- 15
2020-08-19 17:00:00 29.9 9 Sudoeste 32 Sudoeste 0 916 -- 18
2020-08-19 16:00:00 29.2 13 Sudoeste 37 Sudoeste 0 916.8 -- 24
2020-08-19 15:00:00 28.4 10 Sudoeste 32 Sudoeste 0 917.3 -- 25
2020-08-19 14:00:00 27 12 Sudoeste 30 Sudoeste 0 917.5 -- 31
2020-08-19 13:00:00 25.1 10 Sudoeste 31 Sur 0 918.2 -- 42
2020-08-19 12:00:00 23 8 Sudoeste 24 Sudoeste 0 918.8 -- 50
2020-08-19 11:00:00 21 9 Sudoeste 23 Sudoeste 0 919.1 -- 58
2020-08-19 10:00:00 18.2 6 Sudoeste 14 Sudoeste 0 919.4 -- 80
2020-08-19 09:00:00 13.9 3 Noroeste 10 Noroeste 0 919.4 -- --
2020-08-19 08:00:00 11.7 0 Calma 5 Noroeste 0 919 -- --
2020-08-19 07:00:00 11.8 0 Calma 4 Sudoeste 0 919.3 -- --
2020-08-19 06:00:00 12.7 0 Calma 8 Sudoeste 0 919.5 -- --
2020-08-19 05:00:00 13.4 3 Oeste 10 Sudoeste 0 919.7 -- --
2020-08-19 04:00:00 14 0 Calma 5 Sudoeste 0 920.2 -- --
2020-08-19 03:00:00 14.9 2 Sudoeste 5 Noroeste 0 920.6 -- 100
2020-08-19 02:00:00 16.2 0 Calma 4 Norte 0 920.9 -- 100
2020-08-19 01:00:00 17.4 2 Noroeste 4 Norte 0 921 -- 100
2020-08-19 00:00:00 17.8 2 Norte 4 Noroeste 0 921.3 -- 98